createdAt,value
2016-12-11T00:00:41.458Z,0
2016-12-11T00:01:41.413Z,0
2016-12-11T00:02:41.676Z,0
2016-12-11T00:03:41.629Z,0
2016-12-11T00:04:40.987Z,0
2016-12-11T00:05:41.238Z,0
2016-12-11T00:06:41.198Z,0
2016-12-11T00:07:41.164Z,0
2016-12-11T00:08:40.811Z,0
2016-12-11T00:09:41.067Z,0
2016-12-11T00:10:41.023Z,0
2016-12-11T00:11:40.983Z,0
2016-12-11T00:12:40.639Z,0
2016-12-11T00:13:41.196Z,0
2016-12-11T00:14:40.551Z,0
2016-12-11T00:15:40.810Z,0
2016-12-11T00:16:41.071Z,0
2016-12-11T00:17:40.721Z,0
2016-12-11T00:18:40.978Z,0
2016-12-11T00:19:40.933Z,0
2016-12-11T00:20:40.302Z,0
2016-12-11T00:21:40.854Z,0
2016-12-11T00:22:40.508Z,0
2016-12-11T00:23:40.465Z,0
2016-12-11T00:24:40.431Z,0
2016-12-11T00:25:40.681Z,0
2016-12-11T00:26:40.338Z,0
2016-12-11T00:27:40.326Z,0
2016-12-11T00:28:40.550Z,0
2016-12-11T00:29:40.208Z,0
2016-12-11T00:30:40.163Z,0
2016-12-11T00:31:39.847Z,0
2016-12-11T00:32:40.384Z,0
2016-12-11T00:33:40.034Z,0
2016-12-11T00:34:40.310Z,0
2016-12-11T00:35:40.256Z,0
2016-12-11T00:36:39.904Z,0
2016-12-11T00:37:39.872Z,0
2016-12-11T00:38:40.117Z,0
2016-12-11T00:39:40.083Z,0
2016-12-11T00:40:39.726Z,0
2016-12-11T00:41:39.992Z,0
2016-12-11T00:42:39.645Z,0
2016-12-11T00:43:39.600Z,0
2016-12-11T00:44:39.560Z,0
2016-12-11T00:45:39.520Z,0
2016-12-11T00:46:39.474Z,0
2016-12-11T00:47:39.129Z,0
2016-12-11T00:48:39.390Z,0
2016-12-11T00:49:39.349Z,0
2016-12-11T00:50:39.303Z,0
2016-12-11T00:51:39.257Z,0
2016-12-11T00:52:39.524Z,0
2016-12-11T00:53:39.173Z,0
2016-12-11T00:54:38.832Z,0
2016-12-11T00:55:38.780Z,0
2016-12-11T00:56:39.045Z,0
2016-12-11T00:57:39.302Z,0
2016-12-11T00:58:38.968Z,0
2016-12-11T00:59:38.911Z,0
2016-12-11T01:00:38.870Z,0
2016-12-11T01:01:39.128Z,0
2016-12-11T01:02:38.486Z,0
2016-12-11T01:03:39.044Z,0
2016-12-11T01:04:39.040Z,0
2016-12-11T01:05:38.355Z,0
2016-12-11T01:06:38.615Z,0
2016-12-11T01:07:38.872Z,0
2016-12-11T01:08:38.832Z,0
2016-12-11T01:09:38.187Z,0
2016-12-11T01:10:38.745Z,0
2016-12-11T01:11:38.399Z,0
2016-12-11T01:12:38.664Z,0
2016-12-11T01:13:38.009Z,0
2016-12-11T01:14:38.572Z,0
2016-12-11T01:15:37.929Z,0
2016-12-11T01:16:38.182Z,0
2016-12-11T01:17:38.142Z,0
2016-12-11T01:18:38.398Z,0
2016-12-11T01:19:38.350Z,0
2016-12-11T01:20:38.340Z,0
2016-12-11T01:21:38.270Z,0
2016-12-11T01:22:38.431Z,0
2016-12-11T01:23:37.880Z,0
2016-12-11T01:24:37.847Z,0
2016-12-11T01:25:37.493Z,0
2016-12-11T01:26:37.751Z,0
2016-12-11T01:27:38.014Z,0
2016-12-11T01:28:37.971Z,0
2016-12-11T01:29:37.623Z,0
2016-12-11T01:30:37.885Z,0
2016-12-11T01:31:37.835Z,0
2016-12-11T01:32:37.804Z,0
2016-12-11T01:33:37.451Z,0
2016-12-11T01:34:37.408Z,0
2016-12-11T01:35:37.364Z,0
2016-12-11T01:36:37.635Z,0
2016-12-11T01:37:37.578Z,0
2016-12-11T01:38:36.931Z,0
2016-12-11T01:39:37.492Z,0
2016-12-11T01:40:36.854Z,0
2016-12-11T01:41:37.109Z,0
2016-12-11T01:42:37.058Z,0
2016-12-11T01:43:36.721Z,0
2016-12-11T01:44:36.977Z,0
2016-12-11T01:45:36.632Z,0
2016-12-11T01:46:37.196Z,0
2016-12-11T01:47:36.539Z,0
2016-12-11T01:48:36.512Z,0
2016-12-11T01:49:37.058Z,0
2016-12-11T01:50:36.717Z,0
2016-12-11T01:51:36.974Z,0
2016-12-11T01:52:36.624Z,0
2016-12-11T01:53:36.881Z,0
2016-12-11T01:54:36.544Z,0
2016-12-11T01:55:36.507Z,0
2016-12-11T01:56:36.759Z,0
2016-12-11T01:57:36.115Z,0
2016-12-11T01:58:36.678Z,0
2016-12-11T01:59:36.635Z,0
2016-12-11T02:00:36.280Z,0
2016-12-11T02:01:36.238Z,0
2016-12-11T02:02:36.499Z,0
2016-12-11T02:03:36.451Z,0
2016-12-11T02:04:36.109Z,0
2016-12-11T02:05:36.069Z,0
2016-12-11T02:06:35.720Z,0
2016-12-11T02:07:36.428Z,0
2016-12-11T02:08:36.237Z,0
2016-12-11T02:09:35.592Z,0
2016-12-11T02:10:35.856Z,0
2016-12-11T02:11:35.814Z,0
2016-12-11T02:12:35.459Z,0
2016-12-11T02:13:36.021Z,0
2016-12-11T02:14:35.989Z,0
2016-12-11T02:15:35.634Z,0
2016-12-11T02:16:35.587Z,0
2016-12-11T02:17:35.850Z,0
2016-12-11T02:18:35.805Z,0
2016-12-11T02:19:35.467Z,0
2016-12-11T02:20:35.717Z,0
2016-12-11T02:21:35.674Z,0
2016-12-11T02:22:35.635Z,0
2016-12-11T02:23:35.285Z,0
2016-12-11T02:24:35.244Z,0
2016-12-11T02:25:35.200Z,0
2016-12-11T02:26:35.155Z,0
2016-12-11T02:27:35.113Z,0
2016-12-11T02:28:35.376Z,0
2016-12-11T02:29:35.028Z,0
2016-12-11T02:30:35.286Z,0
2016-12-11T02:31:35.255Z,0
2016-12-11T02:32:35.192Z,0
2016-12-11T02:33:35.162Z,0
2016-12-11T02:34:34.812Z,0
2016-12-11T02:35:34.763Z,0
2016-12-11T02:36:34.730Z,0
2016-12-11T02:37:34.376Z,0
2016-12-11T02:38:34.945Z,0
2016-12-11T02:39:34.592Z,0
2016-12-11T02:40:34.548Z,0
2016-12-11T02:41:34.806Z,0
2016-12-11T02:42:34.162Z,0
2016-12-11T02:43:34.186Z,0
2016-12-11T02:44:34.675Z,0
2016-12-11T02:45:34.638Z,0
2016-12-11T02:46:34.593Z,0
2016-12-11T02:47:34.811Z,0
2016-12-11T02:48:34.202Z,0
2016-12-11T02:49:34.157Z,0
2016-12-11T02:50:34.125Z,0
2016-12-11T02:51:34.375Z,0
2016-12-11T02:52:34.335Z,0
2016-12-11T02:53:34.284Z,0
2016-12-11T02:54:34.242Z,0
2016-12-11T02:55:33.892Z,0
2016-12-11T02:56:33.848Z,0
2016-12-11T02:57:34.109Z,0
2016-12-11T02:58:34.068Z,0
2016-12-11T02:59:34.020Z,0
2016-12-11T03:00:33.982Z,0
2016-12-11T03:01:33.636Z,0
2016-12-11T03:02:33.892Z,0
2016-12-11T03:03:33.848Z,0
2016-12-11T03:04:33.818Z,0
2016-12-11T03:05:33.159Z,0
2016-12-11T03:06:33.717Z,0
2016-12-11T03:07:33.379Z,0
2016-12-11T03:08:33.629Z,0
2016-12-11T03:09:32.984Z,0
2016-12-11T03:10:32.937Z,0
2016-12-11T03:11:32.896Z,0
2016-12-11T03:12:32.864Z,0
2016-12-11T03:13:33.413Z,0
2016-12-11T03:14:33.373Z,0
2016-12-11T03:15:33.324Z,0
2016-12-11T03:16:33.283Z,0
2016-12-11T03:17:32.936Z,0
2016-12-11T03:18:33.200Z,0
2016-12-11T03:19:32.850Z,0
2016-12-11T03:20:33.112Z,0
2016-12-11T03:21:33.067Z,0
2016-12-11T03:22:32.728Z,0
2016-12-11T03:23:32.370Z,0
2016-12-11T03:24:32.631Z,0
2016-12-11T03:25:32.891Z,0
2016-12-11T03:26:32.542Z,0
2016-12-11T03:27:32.505Z,0
2016-12-11T03:28:32.764Z,0
2016-12-11T03:29:32.424Z,0
2016-12-11T03:30:32.373Z,0
2016-12-11T03:31:32.629Z,0
2016-12-11T03:32:32.285Z,0
2016-12-11T03:33:32.556Z,0
2016-12-11T03:34:33.724Z,0
2016-12-11T03:35:32.156Z,0
2016-12-11T03:36:32.416Z,0
2016-12-11T03:37:31.596Z,0
2016-12-11T03:38:31.414Z,0
2016-12-11T03:39:31.980Z,0
2016-12-11T03:40:32.239Z,0
2016-12-11T03:41:31.296Z,0
2016-12-11T03:42:31.851Z,0
2016-12-11T03:43:31.805Z,0
2016-12-11T03:44:31.760Z,0
2016-12-11T03:45:31.716Z,0
2016-12-11T03:46:31.370Z,0
2016-12-11T03:47:31.629Z,0
2016-12-11T03:48:31.584Z,0
2016-12-11T03:49:31.242Z,0
2016-12-11T03:50:31.816Z,0
2016-12-11T03:51:31.757Z,0
2016-12-11T03:52:31.117Z,0
2016-12-11T03:53:31.064Z,0
2016-12-11T03:54:31.025Z,0
2016-12-11T03:55:31.585Z,0
2016-12-11T03:56:31.540Z,0
2016-12-11T03:57:31.191Z,0
2016-12-11T03:58:31.452Z,0
2016-12-11T03:59:31.410Z,0
2016-12-11T04:00:31.064Z,0
2016-12-11T04:01:31.323Z,0
2016-12-11T04:02:30.975Z,0
2016-12-11T04:03:30.928Z,0
2016-12-11T04:04:30.885Z,0
2016-12-11T04:05:31.150Z,0
2016-12-11T04:06:30.496Z,0
2016-12-11T04:07:30.757Z,0
2016-12-11T04:08:31.015Z,0
2016-12-11T04:09:30.673Z,0
2016-12-11T04:10:30.925Z,0
2016-12-11T04:11:30.590Z,0
2016-12-11T04:12:30.543Z,0
2016-12-11T04:13:30.790Z,0
2016-12-11T04:14:30.756Z,0
2016-12-11T04:15:30.706Z,0
2016-12-11T04:16:30.672Z,0
2016-12-11T04:17:30.319Z,0
2016-12-11T04:18:30.276Z,0
2016-12-11T04:19:30.538Z,0
2016-12-11T04:20:30.183Z,0
2016-12-11T04:21:30.146Z,0
2016-12-11T04:22:30.396Z,0
2016-12-11T04:23:30.353Z,0
2016-12-11T04:24:30.319Z,0
2016-12-11T04:25:29.669Z,0
2016-12-11T04:26:29.928Z,0
2016-12-11T04:27:29.907Z,0
2016-12-11T04:28:30.142Z,0
2016-12-11T04:29:29.494Z,0
2016-12-11T04:30:30.051Z,0
2016-12-11T04:31:29.705Z,0
2016-12-11T04:32:29.963Z,0
2016-12-11T04:33:29.622Z,0
2016-12-11T04:34:29.573Z,0
2016-12-11T04:35:29.525Z,0
2016-12-11T04:36:29.485Z,0
2016-12-11T04:37:29.446Z,0
2016-12-11T04:38:29.701Z,0
2016-12-11T04:39:29.656Z,0
2016-12-11T04:40:29.617Z,0
2016-12-11T04:41:29.570Z,0
2016-12-11T04:42:29.222Z,0
2016-12-11T04:43:29.189Z,0
2016-12-11T04:44:29.465Z,0
2016-12-11T04:45:29.394Z,0
2016-12-11T04:46:29.346Z,0
2016-12-11T04:47:29.005Z,0
2016-12-11T04:48:29.261Z,0
2016-12-11T04:49:29.218Z,0
2016-12-11T04:50:28.277Z,0
2016-12-11T04:51:29.132Z,0
2016-12-11T04:52:28.782Z,0
2016-12-11T04:53:28.467Z,0
2016-12-11T04:54:28.698Z,0
2016-12-11T04:55:28.354Z,0
2016-12-11T04:56:28.916Z,0
2016-12-11T04:57:28.570Z,0
2016-12-11T04:58:28.831Z,0
2016-12-11T04:59:28.778Z,0
2016-12-11T05:00:28.434Z,0
2016-12-11T05:01:28.711Z,0
2016-12-11T05:02:28.346Z,0
2016-12-11T05:03:28.604Z,0
2016-12-11T05:04:28.261Z,0
2016-12-11T05:05:28.223Z,0
2016-12-11T05:06:29.217Z,0
2016-12-11T05:07:28.143Z,0
2016-12-11T05:08:28.085Z,0
2016-12-11T05:09:28.073Z,0
2016-12-11T05:10:28.297Z,0
2016-12-11T05:11:28.260Z,0
2016-12-11T05:12:27.903Z,0
2016-12-11T05:13:28.169Z,0
2016-12-11T05:14:28.122Z,0
2016-12-11T05:15:27.776Z,0
2016-12-11T05:16:28.036Z,0
2016-12-11T05:17:27.690Z,0
2016-12-11T05:18:27.952Z,0
2016-12-11T05:19:27.903Z,0
2016-12-11T05:20:27.871Z,0
2016-12-11T05:21:26.937Z,0
2016-12-11T05:22:27.165Z,0
2016-12-11T05:23:27.728Z,0
2016-12-11T05:24:27.386Z,0
2016-12-11T05:25:27.335Z,0
2016-12-11T05:26:27.296Z,0
2016-12-11T05:27:27.592Z,0
2016-12-11T05:28:27.229Z,0
2016-12-11T05:29:27.163Z,0
2016-12-11T05:30:26.832Z,0
2016-12-11T05:31:27.376Z,0
2016-12-11T05:32:27.061Z,0
2016-12-11T05:33:26.987Z,0
2016-12-11T05:34:26.939Z,0
2016-12-11T05:35:27.205Z,0
2016-12-11T05:36:27.151Z,0
2016-12-11T05:37:27.107Z,0
2016-12-11T05:38:26.767Z,0
2016-12-11T05:39:26.751Z,0
2016-12-11T05:40:26.982Z,0
2016-12-11T05:41:26.626Z,0
2016-12-11T05:42:26.894Z,0
2016-12-11T05:43:26.542Z,0
2016-12-11T05:44:26.498Z,0
2016-12-11T05:45:26.458Z,0
2016-12-11T05:46:26.723Z,0
2016-12-11T05:47:26.672Z,0
2016-12-11T05:48:26.020Z,0
2016-12-11T05:49:26.580Z,0
2016-12-11T05:50:26.235Z,0
2016-12-11T05:51:26.498Z,0
2016-12-11T05:52:26.152Z,0
2016-12-11T05:53:26.104Z,0
2016-12-11T05:54:26.066Z,0
2016-12-11T05:55:26.021Z,0
2016-12-11T05:56:26.280Z,0
2016-12-11T05:57:25.930Z,0
2016-12-11T05:58:25.890Z,0
2016-12-11T05:59:26.145Z,0
2016-12-11T06:00:26.095Z,0
2016-12-11T06:01:25.902Z,0
2016-12-11T06:02:25.412Z,0
2016-12-11T06:03:25.969Z,0
2016-12-11T06:04:25.924Z,0
2016-12-11T06:05:25.886Z,0
2016-12-11T06:06:25.844Z,0
2016-12-11T06:07:25.502Z,0
2016-12-11T06:08:25.751Z,0
2016-12-11T06:09:25.419Z,0
2016-12-11T06:10:25.660Z,0
2016-12-11T06:11:25.619Z,0
2016-12-11T06:12:25.280Z,0
2016-12-11T06:13:25.230Z,0
2016-12-11T06:14:25.490Z,0
2016-12-11T06:15:25.451Z,0
2016-12-11T06:16:25.401Z,0
2016-12-11T06:17:25.056Z,0
2016-12-11T06:18:25.435Z,0
2016-12-11T06:19:25.270Z,0
2016-12-11T06:20:25.223Z,0
2016-12-11T06:21:24.608Z,0
2016-12-11T06:22:24.537Z,0
2016-12-11T06:23:25.093Z,0
2016-12-11T06:24:25.058Z,0
2016-12-11T06:25:25.011Z,4
2016-12-11T06:26:24.075Z,0
2016-12-11T06:27:24.923Z,0
2016-12-11T06:28:24.581Z,0
2016-12-11T06:29:24.839Z,4
2016-12-11T06:30:24.792Z,4
2016-12-11T06:31:24.766Z,4
2016-12-11T06:32:24.702Z,4
2016-12-11T06:33:24.370Z,8
2016-12-11T06:34:24.376Z,4
2016-12-11T06:35:23.669Z,8
2016-12-11T06:36:24.530Z,8
2016-12-11T06:37:24.184Z,12
2016-12-11T06:38:24.445Z,12
2016-12-11T06:39:24.398Z,16
2016-12-11T06:40:24.366Z,20
2016-12-11T06:41:24.313Z,20
2016-12-11T06:42:23.969Z,28
2016-12-11T06:43:23.922Z,32
2016-12-11T06:44:23.882Z,40
2016-12-11T06:45:24.142Z,44
2016-12-11T06:46:23.805Z,56
2016-12-11T06:47:23.751Z,68
2016-12-11T06:48:23.707Z,80
2016-12-11T06:49:23.661Z,96
2016-12-11T06:50:23.622Z,100
2016-12-11T06:51:23.883Z,104
2016-12-11T06:52:23.832Z,108
2016-12-11T06:53:23.794Z,112
2016-12-11T06:54:23.458Z,128
2016-12-11T06:55:23.409Z,140
2016-12-11T06:56:23.361Z,140
2016-12-11T06:57:23.316Z,148
2016-12-11T06:58:23.574Z,176
2016-12-11T06:59:23.530Z,192
2016-12-11T07:00:22.881Z,212
2016-12-11T07:01:23.137Z,232
2016-12-11T07:02:23.398Z,244
2016-12-11T07:03:23.050Z,280
2016-12-11T07:04:23.307Z,304
2016-12-11T07:05:22.965Z,324
2016-12-11T07:06:22.926Z,364
2016-12-11T07:07:23.174Z,388
2016-12-11T07:08:23.139Z,424
2016-12-11T07:09:22.793Z,444
2016-12-11T07:10:22.749Z,492
2016-12-11T07:11:22.999Z,528
2016-12-11T07:12:22.654Z,560
2016-12-11T07:13:22.914Z,592
2016-12-11T07:14:22.875Z,576
2016-12-11T07:15:22.525Z,568
2016-12-11T07:16:22.790Z,600
2016-12-11T07:17:22.738Z,632
2016-12-11T07:18:22.694Z,660
2016-12-11T07:19:22.350Z,696
2016-12-11T07:20:22.618Z,744
2016-12-11T07:21:22.266Z,808
2016-12-11T07:22:22.221Z,868
2016-12-11T07:23:22.176Z,912
2016-12-11T07:24:22.432Z,972
2016-12-11T07:25:22.389Z,1016
2016-12-11T07:26:22.058Z,1056
2016-12-11T07:27:21.696Z,1088
2016-12-11T07:28:22.263Z,1164
2016-12-11T07:29:22.245Z,1216
2016-12-11T07:30:22.178Z,1336
2016-12-11T07:31:22.128Z,1436
2016-12-11T07:32:22.090Z,1652
2016-12-11T07:33:22.061Z,1888
2016-12-11T07:34:21.393Z,2376
2016-12-11T07:35:21.951Z,2840
2016-12-11T07:36:21.605Z,3044
2016-12-11T07:37:21.866Z,2888
2016-12-11T07:38:21.818Z,2836
2016-12-11T07:39:21.173Z,2800
2016-12-11T07:40:21.731Z,2972
2016-12-11T07:41:21.687Z,2628
2016-12-11T07:42:21.350Z,2652
2016-12-11T07:43:21.598Z,2336
2016-12-11T07:44:21.256Z,2328
2016-12-11T07:45:21.219Z,2260
2016-12-11T07:46:21.469Z,2280
2016-12-11T07:47:21.130Z,2332
2016-12-11T07:48:21.383Z,2404
2016-12-11T07:49:21.040Z,2572
2016-12-11T07:50:20.390Z,2816
2016-12-11T07:51:21.088Z,3264
2016-12-11T07:52:21.209Z,3468
2016-12-11T07:53:21.167Z,3668
2016-12-11T07:54:20.533Z,4092
2016-12-11T07:55:21.085Z,5396
2016-12-11T07:56:20.737Z,6620
2016-12-11T07:57:20.994Z,6368
2016-12-11T07:58:20.946Z,6068
2016-12-11T07:59:20.916Z,7112
2016-12-11T08:00:20.561Z,8432
2016-12-11T08:01:20.541Z,6848
2016-12-11T08:02:20.477Z,7252
2016-12-11T08:03:20.432Z,8472
2016-12-11T08:04:20.698Z,8252
2016-12-11T08:05:20.345Z,9444
2016-12-11T08:06:20.304Z,9332
2016-12-11T08:07:20.561Z,11208
2016-12-11T08:08:20.522Z,14560
2016-12-11T08:09:20.484Z,16640
2016-12-11T08:10:20.129Z,16448
2016-12-11T08:11:19.789Z,18592
2016-12-11T08:12:20.460Z,18528
2016-12-11T08:13:20.033Z,17248
2016-12-11T08:14:19.972Z,18432
2016-12-11T08:15:19.921Z,19232
2016-12-11T08:16:19.888Z,19328
2016-12-11T08:17:19.837Z,22048
2016-12-11T08:18:20.106Z,21568
2016-12-11T08:19:19.757Z,23808
2016-12-11T08:20:19.717Z,24960
2016-12-11T08:21:19.679Z,25312
2016-12-11T08:22:19.344Z,26240
2016-12-11T08:23:19.905Z,26944
2016-12-11T08:24:19.865Z,28704
2016-12-11T08:25:19.222Z,30720
2016-12-11T08:26:19.787Z,32032
2016-12-11T08:27:19.747Z,32896
2016-12-11T08:28:19.112Z,32352
2016-12-11T08:29:19.837Z,31360
2016-12-11T08:30:20.550Z,32192
2016-12-11T08:31:19.605Z,32736
2016-12-11T08:32:19.259Z,32800
2016-12-11T08:33:19.519Z,32128
2016-12-11T08:34:19.498Z,31264
2016-12-11T08:35:19.146Z,24800
2016-12-11T08:36:19.116Z,6408
2016-12-11T08:37:18.779Z,5816
2016-12-11T08:38:18.744Z,5728
2016-12-11T08:39:18.708Z,6140
2016-12-11T08:40:18.699Z,6456
2016-12-11T08:41:19.241Z,6476
2016-12-11T08:42:18.301Z,6436
2016-12-11T08:43:20.334Z,6320
2016-12-11T08:44:18.828Z,6612
2016-12-11T08:45:19.109Z,7040
2016-12-11T08:46:18.461Z,6992
2016-12-11T08:47:18.729Z,7072
2016-12-11T08:48:18.991Z,7428
2016-12-11T08:49:18.651Z,7784
2016-12-11T08:50:18.921Z,9084
2016-12-11T08:51:18.877Z,9916
2016-12-11T08:52:18.236Z,38080
2016-12-11T08:53:18.504Z,37952
2016-12-11T08:54:18.768Z,42112
2016-12-11T08:55:18.430Z,39168
2016-12-11T08:56:18.092Z,37984
2016-12-11T08:57:18.070Z,39040
2016-12-11T08:58:18.011Z,41216
2016-12-11T08:59:18.278Z,34848
2016-12-11T09:00:19.087Z,23008
2016-12-11T09:01:17.904Z,7644
2016-12-11T09:02:18.478Z,6636
2016-12-11T09:03:18.132Z,5812
2016-12-11T09:04:18.091Z,5492
2016-12-11T09:05:18.373Z,5188
2016-12-11T09:06:18.030Z,5380
2016-12-11T09:07:18.000Z,6112
2016-12-11T09:08:18.256Z,7016
2016-12-11T09:09:18.226Z,7412
2016-12-11T09:10:17.888Z,7300
2016-12-11T09:11:17.844Z,6804
2016-12-11T09:12:18.110Z,6500
2016-12-11T09:13:18.075Z,7600
2016-12-11T09:14:17.736Z,7552
2016-12-11T09:15:17.400Z,6936
2016-12-11T09:16:17.671Z,6404
2016-12-11T09:17:17.922Z,6360
2016-12-11T09:18:17.893Z,6112
2016-12-11T09:19:17.250Z,5364
2016-12-11T09:20:17.511Z,4420
2016-12-11T09:21:17.474Z,3700
2016-12-11T09:22:17.434Z,3196
2016-12-11T09:23:17.404Z,3096
2016-12-11T09:24:17.361Z,3004
2016-12-11T09:25:17.616Z,2984
2016-12-11T09:26:17.585Z,2944
2016-12-11T09:27:16.939Z,2976
2016-12-11T09:28:17.507Z,2896
2016-12-11T09:29:17.471Z,2920
2016-12-11T09:30:17.423Z,3200
2016-12-11T09:31:17.388Z,2916
2016-12-11T09:32:17.051Z,2524
2016-12-11T09:33:17.017Z,2456
2016-12-11T09:34:16.975Z,2332
2016-12-11T09:35:16.927Z,2268
2016-12-11T09:36:17.196Z,2108
2016-12-11T09:37:16.550Z,1940
2016-12-11T09:38:17.114Z,1808
2016-12-11T09:39:17.080Z,1708
2016-12-11T09:40:17.041Z,1692
2016-12-11T09:41:16.992Z,1808
2016-12-11T09:42:16.651Z,1876
2016-12-11T09:43:16.612Z,1888
2016-12-11T09:44:16.876Z,1896
2016-12-11T09:45:16.234Z,1904
2016-12-11T09:46:16.185Z,1964
2016-12-11T09:47:16.756Z,2064
2016-12-11T09:48:16.707Z,2120
2016-12-11T09:49:16.370Z,2148
2016-12-11T09:50:16.332Z,2248
2016-12-11T09:51:16.591Z,2288
2016-12-11T09:52:16.247Z,2308
2016-12-11T09:53:15.900Z,2404
2016-12-11T09:54:16.162Z,2452
2016-12-11T09:55:16.155Z,2512
2016-12-11T09:56:16.387Z,2312
2016-12-11T09:57:16.042Z,2052
2016-12-11T09:58:16.313Z,1900
2016-12-11T09:59:15.656Z,1756
2016-12-11T10:00:16.221Z,1644
2016-12-11T10:01:15.878Z,1672
2016-12-11T10:02:15.854Z,1796
2016-12-11T10:03:15.795Z,1884
2016-12-11T10:04:15.753Z,1800
2016-12-11T10:05:16.020Z,1708
2016-12-11T10:06:15.979Z,1656
2016-12-11T10:07:15.021Z,1656
2016-12-11T10:08:15.613Z,1672
2016-12-11T10:09:15.550Z,1660
2016-12-11T10:10:15.814Z,1644
2016-12-11T10:11:15.769Z,1640
2016-12-11T10:12:15.730Z,1652
2016-12-11T10:13:15.688Z,1700
2016-12-11T10:14:15.648Z,1728
2016-12-11T10:15:15.601Z,1780
2016-12-11T10:16:15.259Z,1884
2016-12-11T10:17:15.513Z,2128
2016-12-11T10:18:15.171Z,2508
2016-12-11T10:19:15.436Z,2784
2016-12-11T10:20:15.400Z,2900
2016-12-11T10:21:15.353Z,3040
2016-12-11T10:22:15.308Z,3020
2016-12-11T10:23:14.970Z,3112
2016-12-11T10:24:14.639Z,3276
2016-12-11T10:25:15.188Z,3260
2016-12-11T10:26:14.539Z,3056
2016-12-11T10:27:14.802Z,2768
2016-12-11T10:28:14.455Z,2544
2016-12-11T10:29:15.028Z,2504
2016-12-11T10:30:14.978Z,2604
2016-12-11T10:31:14.942Z,2632
2016-12-11T10:32:14.591Z,2452
2016-12-11T10:33:15.787Z,2128
2016-12-11T10:34:14.812Z,1876
2016-12-11T10:35:14.469Z,1756
2016-12-11T10:36:14.728Z,1660
2016-12-11T10:37:14.383Z,1572
2016-12-11T10:38:14.350Z,1580
2016-12-11T10:39:14.307Z,1532
2016-12-11T10:40:14.257Z,1440
2016-12-11T10:41:14.223Z,1336
2016-12-11T10:42:14.489Z,1228
2016-12-11T10:43:14.292Z,1156
2016-12-11T10:44:14.100Z,1172
2016-12-11T10:45:14.071Z,1308
2016-12-11T10:46:14.321Z,1564
2016-12-11T10:47:14.270Z,1816
2016-12-11T10:48:14.234Z,2040
2016-12-11T10:49:13.589Z,2296
2016-12-11T10:50:14.155Z,2428
2016-12-11T10:51:14.104Z,2492
2016-12-11T10:52:13.461Z,2456
2016-12-11T10:53:13.721Z,2376
2016-12-11T10:54:13.683Z,2316
2016-12-11T10:55:13.661Z,2356
2016-12-11T10:56:13.003Z,2364
2016-12-11T10:57:13.872Z,2228
2016-12-11T10:58:13.725Z,2072
2016-12-11T10:59:13.791Z,1908
2016-12-11T11:00:13.144Z,1852
2016-12-11T11:01:13.700Z,1868
2016-12-11T11:02:13.662Z,1924
2016-12-11T11:03:13.011Z,1992
2016-12-11T11:04:13.280Z,2036
2016-12-11T11:05:12.628Z,1964
2016-12-11T11:06:13.493Z,1976
2016-12-11T11:07:12.852Z,2156
2016-12-11T11:08:12.813Z,2324
2016-12-11T11:09:12.468Z,2288
2016-12-11T11:10:13.347Z,2188
2016-12-11T11:11:12.679Z,2172
2016-12-11T11:12:12.938Z,2448
2016-12-11T11:13:12.897Z,3176
2016-12-11T11:14:12.556Z,3956
2016-12-11T11:15:12.821Z,5016
2016-12-11T11:16:13.076Z,5924
2016-12-11T11:17:13.038Z,6380
2016-12-11T11:18:12.999Z,5940
2016-12-11T11:19:12.954Z,5124
2016-12-11T11:20:12.005Z,5112
2016-12-11T11:21:12.569Z,5176
2016-12-11T11:22:12.235Z,4432
2016-12-11T11:23:12.488Z,3548
2016-12-11T11:24:12.143Z,2984
2016-12-11T11:25:12.736Z,3020
2016-12-11T11:26:12.362Z,3828
2016-12-11T11:27:12.015Z,8596
2016-12-11T11:28:12.293Z,6740
2016-12-11T11:29:12.547Z,6316
2016-12-11T11:30:11.899Z,6488
2016-12-11T11:31:12.156Z,6244
2016-12-11T11:32:12.415Z,5888
2016-12-11T11:33:12.077Z,5324
2016-12-11T11:34:11.731Z,4392
2016-12-11T11:35:11.997Z,3528
2016-12-11T11:36:11.957Z,2920
2016-12-11T11:37:12.214Z,2700
2016-12-11T11:38:12.179Z,2576
2016-12-11T11:39:11.835Z,2516
2016-12-11T11:40:11.792Z,2540
2016-12-11T11:41:11.750Z,2636
2016-12-11T11:42:12.006Z,2752
2016-12-11T11:43:11.368Z,2804
2016-12-11T11:44:11.632Z,2976
2016-12-11T11:45:11.889Z,3152
2016-12-11T11:46:11.850Z,3460
2016-12-11T11:47:11.804Z,3604
2016-12-11T11:48:11.459Z,3420
2016-12-11T11:49:11.419Z,3136
2016-12-11T11:50:11.080Z,2804
2016-12-11T11:51:11.645Z,2552
2016-12-11T11:52:11.594Z,2448
2016-12-11T11:53:11.553Z,2364
2016-12-11T11:54:11.219Z,2312
2016-12-11T11:55:11.481Z,2296
2016-12-11T11:56:10.531Z,2188
2016-12-11T11:57:11.391Z,2128
2016-12-11T11:58:11.052Z,2084
2016-12-11T11:59:11.014Z,2028
2016-12-11T12:00:10.378Z,1992
2016-12-11T12:01:10.933Z,2000
2016-12-11T12:02:10.582Z,2072
2016-12-11T12:03:11.156Z,2180
2016-12-11T12:04:10.507Z,2268
2016-12-11T12:05:11.069Z,2384
2016-12-11T12:06:10.762Z,2472
2016-12-11T12:07:10.685Z,2484
2016-12-11T12:08:10.942Z,2268
2016-12-11T12:09:10.908Z,2032
2016-12-11T12:10:10.901Z,1868
2016-12-11T12:11:10.242Z,1920
2016-12-11T12:12:10.480Z,1968
2016-12-11T12:13:10.743Z,2000
2016-12-11T12:14:10.095Z,1984
2016-12-11T12:15:10.659Z,1980
2016-12-11T12:16:10.755Z,2088
2016-12-11T12:17:10.585Z,2276
2016-12-11T12:18:10.237Z,2372
2016-12-11T12:19:10.486Z,2284
2016-12-11T12:20:10.451Z,2120
2016-12-11T12:21:10.108Z,2152
2016-12-11T12:22:10.372Z,2056
2016-12-11T12:23:10.023Z,2016
2016-12-11T12:24:09.983Z,1872
2016-12-11T12:25:09.950Z,1864
2016-12-11T12:26:09.910Z,1948
2016-12-11T12:27:10.168Z,1968
2016-12-11T12:28:09.524Z,1800
2016-12-11T12:29:10.088Z,1736
2016-12-11T12:30:09.753Z,1580
2016-12-11T12:31:09.881Z,1520
2016-12-11T12:32:09.662Z,1376
2016-12-11T12:33:09.618Z,1300
2016-12-11T12:34:09.881Z,1372
2016-12-11T12:35:09.837Z,1364
2016-12-11T12:36:09.794Z,1380
2016-12-11T12:37:09.755Z,1272
2016-12-11T12:38:09.725Z,1228
2016-12-11T12:39:09.670Z,1260
2016-12-11T12:40:09.336Z,1252
2016-12-11T12:41:08.986Z,1272
2016-12-11T12:42:09.552Z,1164
2016-12-11T12:43:09.213Z,1208
2016-12-11T12:44:09.467Z,1280
2016-12-11T12:45:08.524Z,1492
2016-12-11T12:46:09.398Z,1352
2016-12-11T12:47:09.214Z,1296
2016-12-11T12:48:09.565Z,1256
2016-12-11T12:49:08.959Z,1276
2016-12-11T12:50:08.933Z,1244
2016-12-11T12:51:08.882Z,1188
2016-12-11T12:52:08.844Z,1188
2016-12-11T12:53:08.198Z,1196
2016-12-11T12:54:08.754Z,1128
2016-12-11T12:55:09.046Z,1120
2016-12-11T12:56:08.678Z,1180
2016-12-11T12:57:08.937Z,1180
2016-12-11T12:58:08.892Z,1064
2016-12-11T12:59:08.550Z,1028
2016-12-11T13:00:08.514Z,1028
2016-12-11T13:01:08.781Z,940
2016-12-11T13:02:08.741Z,924
2016-12-11T13:03:08.694Z,872
2016-12-11T13:04:08.669Z,888
2016-12-11T13:05:08.306Z,924
2016-12-11T13:06:08.692Z,920
2016-12-11T13:07:08.223Z,900
2016-12-11T13:08:07.887Z,940
2016-12-11T13:09:08.142Z,1048
2016-12-11T13:10:08.106Z,1232
2016-12-11T13:11:07.761Z,1240
2016-12-11T13:12:08.330Z,1272
2016-12-11T13:13:07.675Z,1516
2016-12-11T13:14:08.238Z,1700
2016-12-11T13:15:07.902Z,1768
2016-12-11T13:16:07.856Z,1648
2016-12-11T13:17:07.815Z,1740
2016-12-11T13:18:07.772Z,1948
2016-12-11T13:19:07.735Z,1816
2016-12-11T13:20:07.992Z,1844
2016-12-11T13:21:07.652Z,2024
2016-12-11T13:22:07.907Z,1860
2016-12-11T13:23:07.566Z,2016
2016-12-11T13:24:07.844Z,2244
2016-12-11T13:25:07.499Z,2388
2016-12-11T13:26:07.751Z,2392
2016-12-11T13:27:07.705Z,2144
2016-12-11T13:28:07.370Z,2100
2016-12-11T13:29:07.624Z,2024
2016-12-11T13:30:07.589Z,1888
2016-12-11T13:31:06.946Z,2104
2016-12-11T13:32:07.205Z,2304
2016-12-11T13:33:07.459Z,2344
2016-12-11T13:34:06.815Z,2404
2016-12-11T13:35:06.774Z,2508
2016-12-11T13:36:07.345Z,2572
2016-12-11T13:37:07.304Z,2692
2016-12-11T13:38:07.254Z,2628
2016-12-11T13:39:07.223Z,2608
2016-12-11T13:40:06.873Z,2572
2016-12-11T13:41:07.129Z,2460
2016-12-11T13:42:07.098Z,2444
2016-12-11T13:43:06.450Z,2344
2016-12-11T13:44:07.014Z,2184
2016-12-11T13:45:06.971Z,2264
2016-12-11T13:46:06.940Z,2144
2016-12-11T13:47:06.927Z,1972
2016-12-11T13:48:06.856Z,1988
2016-12-11T13:49:06.505Z,1896
2016-12-11T13:50:06.769Z,1888
2016-12-11T13:51:06.451Z,1784
2016-12-11T13:52:06.084Z,1668
2016-12-11T13:53:06.039Z,1732
2016-12-11T13:54:06.604Z,1612
2016-12-11T13:55:06.566Z,1512
2016-12-11T13:56:06.520Z,1464
2016-12-11T13:57:05.884Z,1416
2016-12-11T13:58:06.445Z,1468
2016-12-11T13:59:06.401Z,1556